sensor_id;sensor_type;location;lat;lon;timestamp;temperature;humidity
57088;DHT22;42965;52.846;6.614;2023-04-25T00:00:34;6.70;99.90
57088;DHT22;42965;52.846;6.614;2023-04-25T00:03:00;6.70;99.90
57088;DHT22;42965;52.846;6.614;2023-04-25T00:05:26;6.70;99.90
57088;DHT22;42965;52.846;6.614;2023-04-25T00:07:53;6.60;99.90
57088;DHT22;42965;52.846;6.614;2023-04-25T00:10:20;6.50;99.90
57088;DHT22;42965;52.846;6.614;2023-04-25T00:12:46;6.50;99.90
57088;DHT22;42965;52.846;6.614;2023-04-25T00:15:13;6.40;99.90
57088;DHT22;42965;52.846;6.614;2023-04-25T00:17:40;6.30;99.90
57088;DHT22;42965;52.846;6.614;2023-04-25T00:20:06;6.20;99.90
57088;DHT22;42965;52.846;6.614;2023-04-25T00:22:35;6.20;99.90
57088;DHT22;42965;52.846;6.614;2023-04-25T00:25:06;6.10;99.90
57088;DHT22;42965;52.846;6.614;2023-04-25T00:27:32;6.00;99.90
57088;DHT22;42965;52.846;6.614;2023-04-25T00:29:59;6.00;99.90
57088;DHT22;42965;52.846;6.614;2023-04-25T00:32:26;5.90;99.90
57088;DHT22;42965;52.846;6.614;2023-04-25T00:34:52;5.90;99.90
57088;DHT22;42965;52.846;6.614;2023-04-25T00:37:19;5.90;99.90
57088;DHT22;42965;52.846;6.614;2023-04-25T00:39:45;5.90;99.90
57088;DHT22;42965;52.846;6.614;2023-04-25T00:42:14;5.90;99.90
57088;DHT22;42965;52.846;6.614;2023-04-25T00:44:41;5.80;99.90
57088;DHT22;42965;52.846;6.614;2023-04-25T00:47:08;5.80;99.90
57088;DHT22;42965;52.846;6.614;2023-04-25T00:49:34;5.70;99.90
57088;DHT22;42965;52.846;6.614;2023-04-25T00:52:00;5.70;99.90
57088;DHT22;42965;52.846;6.614;2023-04-25T00:54:27;5.70;99.90
57088;DHT22;42965;52.846;6.614;2023-04-25T00:56:53;5.80;99.90
57088;DHT22;42965;52.846;6.614;2023-04-25T00:59:20;5.90;99.90
57088;DHT22;42965;52.846;6.614;2023-04-25T01:01:47;5.90;99.90
57088;DHT22;42965;52.846;6.614;2023-04-25T01:04:13;5.90;99.90
57088;DHT22;42965;52.846;6.614;2023-04-25T01:06:40;5.90;99.90
57088;DHT22;42965;52.846;6.614;2023-04-25T01:09:07;6.00;99.90
57088;DHT22;42965;52.846;6.614;2023-04-25T01:11:33;6.00;99.90
57088;DHT22;42965;52.846;6.614;2023-04-25T01:14:00;6.00;99.90
57088;DHT22;42965;52.846;6.614;2023-04-25T01:16:27;5.90;99.90
57088;DHT22;42965;52.846;6.614;2023-04-25T01:18:54;5.80;99.90
57088;DHT22;42965;52.846;6.614;2023-04-25T01:21:21;5.80;99.90
57088;DHT22;42965;52.846;6.614;2023-04-25T01:23:47;5.70;99.90
57088;DHT22;42965;52.846;6.614;2023-04-25T01:26:14;5.60;99.90
57088;DHT22;42965;52.846;6.614;2023-04-25T01:28:41;5.60;99.90
57088;DHT22;42965;52.846;6.614;2023-04-25T01:31:09;5.60;99.90
57088;DHT22;42965;52.846;6.614;2023-04-25T01:33:35;5.50;99.90
57088;DHT22;42965;52.846;6.614;2023-04-25T01:36:02;5.50;99.90
57088;DHT22;42965;52.846;6.614;2023-04-25T01:38:29;5.50;99.90
57088;DHT22;42965;52.846;6.614;2023-04-25T01:40:56;5.50;99.90
57088;DHT22;42965;52.846;6.614;2023-04-25T01:43:22;5.40;99.90
57088;DHT22;42965;52.846;6.614;2023-04-25T01:45:49;5.40;99.90
57088;DHT22;42965;52.846;6.614;2023-04-25T01:48:19;5.50;99.90
57088;DHT22;42965;52.846;6.614;2023-04-25T01:50:46;5.50;99.90
57088;DHT22;42965;52.846;6.614;2023-04-25T01:53:13;5.50;99.90
57088;DHT22;42965;52.846;6.614;2023-04-25T01:55:42;5.60;99.90
57088;DHT22;42965;52.846;6.614;2023-04-25T01:58:11;5.60;99.90
57088;DHT22;42965;52.846;6.614;2023-04-25T02:00:57;5.60;99.90
57088;DHT22;42965;52.846;6.614;2023-04-25T02:03:31;5.70;99.90
57088;DHT22;42965;52.846;6.614;2023-04-25T02:06:16;5.70;99.90
57088;DHT22;42965;52.846;6.614;2023-04-25T02:08:46;5.70;99.90
57088;DHT22;42965;52.846;6.614;2023-04-25T02:11:13;5.70;99.90
57088;DHT22;42965;52.846;6.614;2023-04-25T02:13:49;5.70;99.90
57088;DHT22;42965;52.846;6.614;2023-04-25T02:16:38;5.70;99.90
57088;DHT22;42965;52.846;6.614;2023-04-25T02:19:07;5.70;99.90
57088;DHT22;42965;52.846;6.614;2023-04-25T02:21:33;5.80;99.90
57088;DHT22;42965;52.846;6.614;2023-04-25T02:24:02;5.80;99.90
57088;DHT22;42965;52.846;6.614;2023-04-25T02:26:29;5.80;99.90
57088;DHT22;42965;52.846;6.614;2023-04-25T02:28:56;5.80;99.90
57088;DHT22;42965;52.846;6.614;2023-04-25T02:31:23;5.80;99.90
57088;DHT22;42965;52.846;6.614;2023-04-25T02:33:51;5.80;99.90
57088;DHT22;42965;52.846;6.614;2023-04-25T02:36:17;5.80;99.90
57088;DHT22;42965;52.846;6.614;2023-04-25T02:38:44;5.80;99.90
57088;DHT22;42965;52.846;6.614;2023-04-25T02:41:10;5.80;99.90
57088;DHT22;42965;52.846;6.614;2023-04-25T02:43:37;5.70;99.90
57088;DHT22;42965;52.846;6.614;2023-04-25T02:46:03;5.70;99.90
57088;DHT22;42965;52.846;6.614;2023-04-25T02:48:29;5.70;99.90
57088;DHT22;42965;52.846;6.614;2023-04-25T02:50:55;5.70;99.90
57088;DHT22;42965;52.846;6.614;2023-04-25T02:53:21;5.70;99.90
57088;DHT22;42965;52.846;6.614;2023-04-25T02:55:50;5.70;99.90
57088;DHT22;42965;52.846;6.614;2023-04-25T02:58:18;5.70;99.90
57088;DHT22;42965;52.846;6.614;2023-04-25T03:00:50;5.70;99.90
57088;DHT22;42965;52.846;6.614;2023-04-25T03:03:17;5.70;99.90
57088;DHT22;42965;52.846;6.614;2023-04-25T03:05:44;5.70;99.90
57088;DHT22;42965;52.846;6.614;2023-04-25T03:08:12;5.70;99.90
57088;DHT22;42965;52.846;6.614;2023-04-25T03:10:38;5.60;99.90
57088;DHT22;42965;52.846;6.614;2023-04-25T03:13:08;5.60;99.90
57088;DHT22;42965;52.846;6.614;2023-04-25T03:15:35;5.60;99.90
57088;DHT22;42965;52.846;6.614;2023-04-25T03:18:01;5.60;99.90
57088;DHT22;42965;52.846;6.614;2023-04-25T03:20:27;5.50;99.90
57088;DHT22;42965;52.846;6.614;2023-04-25T03:22:54;5.50;99.90
57088;DHT22;42965;52.846;6.614;2023-04-25T03:25:20;5.50;99.90
57088;DHT22;42965;52.846;6.614;2023-04-25T03:27:47;5.50;99.90
57088;DHT22;42965;52.846;6.614;2023-04-25T03:30:13;5.50;99.90
57088;DHT22;42965;52.846;6.614;2023-04-25T03:32:41;5.50;99.90
57088;DHT22;42965;52.846;6.614;2023-04-25T03:35:08;5.50;99.90
57088;DHT22;42965;52.846;6.614;2023-04-25T03:37:34;5.50;99.90
57088;DHT22;42965;52.846;6.614;2023-04-25T03:40:02;5.40;99.90
57088;DHT22;42965;52.846;6.614;2023-04-25T03:42:48;5.40;99.90
57088;DHT22;42965;52.846;6.614;2023-04-25T03:45:14;5.30;99.90
57088;DHT22;42965;52.846;6.614;2023-04-25T03:47:40;5.30;99.90
57088;DHT22;42965;52.846;6.614;2023-04-25T03:50:07;5.20;99.90
57088;DHT22;42965;52.846;6.614;2023-04-25T03:52:33;5.20;99.90
57088;DHT22;42965;52.846;6.614;2023-04-25T03:55:00;5.20;99.90
57088;DHT22;42965;52.846;6.614;2023-04-25T03:57:26;5.20;99.90
57088;DHT22;42965;52.846;6.614;2023-04-25T03:59:53;5.20;99.90
57088;DHT22;42965;52.846;6.614;2023-04-25T04:02:19;5.10;99.90
57088;DHT22;42965;52.846;6.614;2023-04-25T04:04:46;5.10;99.90
57088;DHT22;42965;52.846;6.614;2023-04-25T04:07:13;5.10;99.90
57088;DHT22;42965;52.846;6.614;2023-04-25T04:09:42;5.10;99.90
57088;DHT22;42965;52.846;6.614;2023-04-25T04:12:13;5.10;99.90
57088;DHT22;42965;52.846;6.614;2023-04-25T04:14:40;5.10;99.90
57088;DHT22;42965;52.846;6.614;2023-04-25T04:17:07;5.00;99.90
57088;DHT22;42965;52.846;6.614;2023-04-25T04:19:33;5.00;99.90
57088;DHT22;42965;52.846;6.614;2023-04-25T04:22:19;5.00;99.90
57088;DHT22;42965;52.846;6.614;2023-04-25T04:24:47;5.00;99.90
57088;DHT22;42965;52.846;6.614;2023-04-25T04:27:19;5.00;99.90
57088;DHT22;42965;52.846;6.614;2023-04-25T04:29:51;5.00;99.90
57088;DHT22;42965;52.846;6.614;2023-04-25T04:32:26;5.00;99.90
57088;DHT22;42965;52.846;6.614;2023-04-25T04:34:53;5.00;99.90
57088;DHT22;42965;52.846;6.614;2023-04-25T04:37:22;5.00;99.90
57088;DHT22;42965;52.846;6.614;2023-04-25T04:39:50;5.00;99.90
57088;DHT22;42965;52.846;6.614;2023-04-25T04:42:40;5.10;99.90
57088;DHT22;42965;52.846;6.614;2023-04-25T04:45:26;5.10;99.90
57088;DHT22;42965;52.846;6.614;2023-04-25T04:48:13;5.10;99.90
57088;DHT22;42965;52.846;6.614;2023-04-25T04:50:56;5.10;99.90
57088;DHT22;42965;52.846;6.614;2023-04-25T04:53:40;5.20;99.90
57088;DHT22;42965;52.846;6.614;2023-04-25T04:56:33;5.30;99.90
57088;DHT22;42965;52.846;6.614;2023-04-25T04:59:18;5.30;99.90
57088;DHT22;42965;52.846;6.614;2023-04-25T05:02:04;5.20;99.90
57088;DHT22;42965;52.846;6.614;2023-04-25T05:04:56;5.30;99.90
57088;DHT22;42965;52.846;6.614;2023-04-25T05:08:01;5.30;99.90
57088;DHT22;42965;52.846;6.614;2023-04-25T05:10:42;5.20;99.90
57088;DHT22;42965;52.846;6.614;2023-04-25T05:13:19;5.20;99.90
57088;DHT22;42965;52.846;6.614;2023-04-25T05:16:05;5.20;99.90
57088;DHT22;42965;52.846;6.614;2023-04-25T05:18:52;5.30;99.90
57088;DHT22;42965;52.846;6.614;2023-04-25T05:21:27;5.40;99.90
57088;DHT22;42965;52.846;6.614;2023-04-25T05:24:23;5.50;99.90
57088;DHT22;42965;52.846;6.614;2023-04-25T05:27:07;5.60;99.90
57088;DHT22;42965;52.846;6.614;2023-04-25T05:29:45;5.70;99.90
57088;DHT22;42965;52.846;6.614;2023-04-25T05:32:21;5.80;99.90
57088;DHT22;42965;52.846;6.614;2023-04-25T05:34:49;6.00;99.90
57088;DHT22;42965;52.846;6.614;2023-04-25T05:37:27;6.00;99.90
57088;DHT22;42965;52.846;6.614;2023-04-25T05:40:11;6.00;99.90
57088;DHT22;42965;52.846;6.614;2023-04-25T05:42:54;6.10;99.90
57088;DHT22;42965;52.846;6.614;2023-04-25T05:45:27;6.10;99.90
57088;DHT22;42965;52.846;6.614;2023-04-25T05:48:04;6.30;99.90
57088;DHT22;42965;52.846;6.614;2023-04-25T05:50:57;6.60;99.90
57088;DHT22;42965;52.846;6.614;2023-04-25T05:53:40;6.60;99.90
57088;DHT22;42965;52.846;6.614;2023-04-25T05:56:06;6.60;99.90
57088;DHT22;42965;52.846;6.614;2023-04-25T05:58:33;6.70;99.90
57088;DHT22;42965;52.846;6.614;2023-04-25T06:01:01;6.60;99.90
57088;DHT22;42965;52.846;6.614;2023-04-25T06:03:28;6.60;99.90
57088;DHT22;42965;52.846;6.614;2023-04-25T06:05:57;6.70;99.90
57088;DHT22;42965;52.846;6.614;2023-04-25T06:08:26;6.80;99.90
57088;DHT22;42965;52.846;6.614;2023-04-25T06:10:52;6.70;99.90
57088;DHT22;42965;52.846;6.614;2023-04-25T06:13:18;6.70;99.90
57088;DHT22;42965;52.846;6.614;2023-04-25T06:15:45;6.70;99.90
57088;DHT22;42965;52.846;6.614;2023-04-25T06:18:12;6.60;99.90
57088;DHT22;42965;52.846;6.614;2023-04-25T06:20:38;6.70;99.90
57088;DHT22;42965;52.846;6.614;2023-04-25T06:23:04;6.80;99.90
57088;DHT22;42965;52.846;6.614;2023-04-25T06:25:51;6.80;99.90
57088;DHT22;42965;52.846;6.614;2023-04-25T06:28:19;6.80;99.90
57088;DHT22;42965;52.846;6.614;2023-04-25T06:30:45;6.70;99.90
57088;DHT22;42965;52.846;6.614;2023-04-25T06:33:16;6.80;99.90
57088;DHT22;42965;52.846;6.614;2023-04-25T06:35:42;6.80;99.90
57088;DHT22;42965;52.846;6.614;2023-04-25T06:38:12;6.90;99.90
57088;DHT22;42965;52.846;6.614;2023-04-25T06:40:40;6.80;99.90
57088;DHT22;42965;52.846;6.614;2023-04-25T06:43:08;7.00;99.90
57088;DHT22;42965;52.846;6.614;2023-04-25T06:45:50;7.30;99.90
57088;DHT22;42965;52.846;6.614;2023-04-25T06:48:17;7.60;99.90
57088;DHT22;42965;52.846;6.614;2023-04-25T06:50:43;7.70;99.90
57088;DHT22;42965;52.846;6.614;2023-04-25T06:53:11;8.00;99.90
57088;DHT22;42965;52.846;6.614;2023-04-25T06:55:38;8.20;99.90
57088;DHT22;42965;52.846;6.614;2023-04-25T06:58:13;8.60;99.90
57088;DHT22;42965;52.846;6.614;2023-04-25T07:01:15;8.50;99.90
57088;DHT22;42965;52.846;6.614;2023-04-25T07:03:48;8.60;99.90
57088;DHT22;42965;52.846;6.614;2023-04-25T07:06:17;8.40;99.90
57088;DHT22;42965;52.846;6.614;2023-04-25T07:08:45;8.10;99.90
57088;DHT22;42965;52.846;6.614;2023-04-25T07:11:12;8.20;99.90
57088;DHT22;42965;52.846;6.614;2023-04-25T07:13:39;8.30;99.90
57088;DHT22;42965;52.846;6.614;2023-04-25T07:16:05;8.60;99.90
57088;DHT22;42965;52.846;6.614;2023-04-25T07:18:33;8.90;99.90
57088;DHT22;42965;52.846;6.614;2023-04-25T07:21:00;9.20;99.90
57088;DHT22;42965;52.846;6.614;2023-04-25T07:23:27;9.40;99.90
57088;DHT22;42965;52.846;6.614;2023-04-25T07:25:54;9.10;99.90
57088;DHT22;42965;52.846;6.614;2023-04-25T07:28:24;9.10;99.90
57088;DHT22;42965;52.846;6.614;2023-04-25T07:30:50;8.80;99.90
57088;DHT22;42965;52.846;6.614;2023-04-25T07:33:17;8.70;99.90
57088;DHT22;42965;52.846;6.614;2023-04-25T07:35:43;8.60;99.90
57088;DHT22;42965;52.846;6.614;2023-04-25T07:38:10;8.40;99.90
57088;DHT22;42965;52.846;6.614;2023-04-25T07:40:37;8.50;99.90
57088;DHT22;42965;52.846;6.614;2023-04-25T07:43:06;9.00;99.90
57088;DHT22;42965;52.846;6.614;2023-04-25T07:45:40;9.30;99.90
57088;DHT22;42965;52.846;6.614;2023-04-25T07:48:07;9.70;99.90
57088;DHT22;42965;52.846;6.614;2023-04-25T07:50:36;10.20;99.90
57088;DHT22;42965;52.846;6.614;2023-04-25T07:53:02;10.50;99.90
57088;DHT22;42965;52.846;6.614;2023-04-25T07:55:35;10.70;99.90
57088;DHT22;42965;52.846;6.614;2023-04-25T07:58:15;10.70;99.90
57088;DHT22;42965;52.846;6.614;2023-04-25T08:00:48;11.10;99.90
57088;DHT22;42965;52.846;6.614;2023-04-25T08:03:33;11.40;99.90
57088;DHT22;42965;52.846;6.614;2023-04-25T08:06:00;11.20;99.90
57088;DHT22;42965;52.846;6.614;2023-04-25T08:08:31;11.00;99.90
57088;DHT22;42965;52.846;6.614;2023-04-25T08:10:58;10.30;99.90
57088;DHT22;42965;52.846;6.614;2023-04-25T08:13:24;9.70;99.90
57088;DHT22;42965;52.846;6.614;2023-04-25T08:15:52;9.30;99.90
57088;DHT22;42965;52.846;6.614;2023-04-25T08:18:19;9.10;99.90
57088;DHT22;42965;52.846;6.614;2023-04-25T08:20:47;8.80;99.90
57088;DHT22;42965;52.846;6.614;2023-04-25T08:23:14;8.80;99.90
57088;DHT22;42965;52.846;6.614;2023-04-25T08:25:52;8.50;99.90
57088;DHT22;42965;52.846;6.614;2023-04-25T08:28:22;8.50;99.90
57088;DHT22;42965;52.846;6.614;2023-04-25T08:30:48;8.50;99.90
57088;DHT22;42965;52.846;6.614;2023-04-25T08:33:15;9.20;99.90
57088;DHT22;42965;52.846;6.614;2023-04-25T08:35:57;10.00;99.90
57088;DHT22;42965;52.846;6.614;2023-04-25T08:38:25;10.80;99.90
57088;DHT22;42965;52.846;6.614;2023-04-25T08:40:54;10.70;99.90
57088;DHT22;42965;52.846;6.614;2023-04-25T08:43:23;11.70;99.90
57088;DHT22;42965;52.846;6.614;2023-04-25T08:45:53;12.10;99.90
57088;DHT22;42965;52.846;6.614;2023-04-25T08:48:33;11.90;99.90
57088;DHT22;42965;52.846;6.614;2023-04-25T08:51:06;12.10;99.90
57088;DHT22;42965;52.846;6.614;2023-04-25T08:53:33;12.20;99.90
57088;DHT22;42965;52.846;6.614;2023-04-25T08:56:02;11.70;99.90
57088;DHT22;42965;52.846;6.614;2023-04-25T08:58:33;11.80;99.90
57088;DHT22;42965;52.846;6.614;2023-04-25T09:01:00;11.80;99.90
57088;DHT22;42965;52.846;6.614;2023-04-25T09:03:30;11.80;99.90
57088;DHT22;42965;52.846;6.614;2023-04-25T09:05:56;11.90;99.90
57088;DHT22;42965;52.846;6.614;2023-04-25T09:08:23;11.60;99.90
57088;DHT22;42965;52.846;6.614;2023-04-25T09:10:50;12.00;99.90
57088;DHT22;42965;52.846;6.614;2023-04-25T09:13:25;12.40;99.90
57088;DHT22;42965;52.846;6.614;2023-04-25T09:16:11;12.90;99.90
57088;DHT22;42965;52.846;6.614;2023-04-25T09:19:00;13.40;99.90
57088;DHT22;42965;52.846;6.614;2023-04-25T09:21:27;13.30;99.20
57088;DHT22;42965;52.846;6.614;2023-04-25T09:23:54;11.90;99.90
57088;DHT22;42965;52.846;6.614;2023-04-25T09:26:21;10.10;99.90
57088;DHT22;42965;52.846;6.614;2023-04-25T09:28:48;9.10;99.90
57088;DHT22;42965;52.846;6.614;2023-04-25T09:31:23;8.40;99.90
57088;DHT22;42965;52.846;6.614;2023-04-25T09:33:59;8.30;99.90
57088;DHT22;42965;52.846;6.614;2023-04-25T09:36:29;8.20;99.90
57088;DHT22;42965;52.846;6.614;2023-04-25T09:39:12;8.20;99.90
57088;DHT22;42965;52.846;6.614;2023-04-25T09:41:44;8.50;99.90
57088;DHT22;42965;52.846;6.614;2023-04-25T09:44:13;8.90;99.90
57088;DHT22;42965;52.846;6.614;2023-04-25T09:46:42;9.50;99.90
57088;DHT22;42965;52.846;6.614;2023-04-25T09:49:20;9.90;99.90
57088;DHT22;42965;52.846;6.614;2023-04-25T09:51:57;10.30;99.90
57088;DHT22;42965;52.846;6.614;2023-04-25T09:54:27;10.50;99.90
57088;DHT22;42965;52.846;6.614;2023-04-25T09:57:13;11.20;99.90
57088;DHT22;42965;52.846;6.614;2023-04-25T09:59:44;11.50;99.90
57088;DHT22;42965;52.846;6.614;2023-04-25T10:02:11;12.50;99.90
57088;DHT22;42965;52.846;6.614;2023-04-25T10:04:39;13.00;99.90
57088;DHT22;42965;52.846;6.614;2023-04-25T10:07:16;12.40;99.90
57088;DHT22;42965;52.846;6.614;2023-04-25T10:09:48;11.90;99.90
57088;DHT22;42965;52.846;6.614;2023-04-25T10:12:16;11.40;99.90
57088;DHT22;42965;52.846;6.614;2023-04-25T10:14:44;10.50;99.90
57088;DHT22;42965;52.846;6.614;2023-04-25T10:17:11;9.70;99.90
57088;DHT22;42965;52.846;6.614;2023-04-25T10:19:39;9.50;99.90
57088;DHT22;42965;52.846;6.614;2023-04-25T10:22:23;9.50;99.90
57088;DHT22;42965;52.846;6.614;2023-04-25T10:24:52;9.70;99.90
57088;DHT22;42965;52.846;6.614;2023-04-25T10:27:18;10.10;99.90
57088;DHT22;42965;52.846;6.614;2023-04-25T10:29:45;11.00;99.90
57088;DHT22;42965;52.846;6.614;2023-04-25T10:32:25;11.60;99.90
57088;DHT22;42965;52.846;6.614;2023-04-25T10:34:52;12.10;99.90
57088;DHT22;42965;52.846;6.614;2023-04-25T10:37:18;12.70;99.90
57088;DHT22;42965;52.846;6.614;2023-04-25T10:39:45;13.10;99.90
57088;DHT22;42965;52.846;6.614;2023-04-25T10:42:12;13.50;99.90
57088;DHT22;42965;52.846;6.614;2023-04-25T10:44:38;13.40;99.90
57088;DHT22;42965;52.846;6.614;2023-04-25T10:47:07;13.10;99.90
57088;DHT22;42965;52.846;6.614;2023-04-25T10:49:41;12.80;99.90
57088;DHT22;42965;52.846;6.614;2023-04-25T10:52:13;12.40;99.90
57088;DHT22;42965;52.846;6.614;2023-04-25T10:54:46;12.00;99.90
57088;DHT22;42965;52.846;6.614;2023-04-25T11:00:05;10.80;99.90
57088;DHT22;42965;52.846;6.614;2023-04-25T11:02:32;10.20;99.90
57088;DHT22;42965;52.846;6.614;2023-04-25T11:05:03;10.20;99.90
57088;DHT22;42965;52.846;6.614;2023-04-25T11:10:04;10.40;99.90
57088;DHT22;42965;52.846;6.614;2023-04-25T11:12:31;11.00;99.90
57088;DHT22;42965;52.846;6.614;2023-04-25T11:14:59;12.20;99.90
57088;DHT22;42965;52.846;6.614;2023-04-25T11:17:27;12.90;99.90
57088;DHT22;42965;52.846;6.614;2023-04-25T11:19:54;12.40;99.90
57088;DHT22;42965;52.846;6.614;2023-04-25T11:22:21;12.30;99.90
57088;DHT22;42965;52.846;6.614;2023-04-25T11:24:47;12.30;99.90
57088;DHT22;42965;52.846;6.614;2023-04-25T11:27:14;12.20;99.90
57088;DHT22;42965;52.846;6.614;2023-04-25T11:29:40;11.90;99.90
57088;DHT22;42965;52.846;6.614;2023-04-25T11:32:07;11.90;99.90
57088;DHT22;42965;52.846;6.614;2023-04-25T11:34:34;12.20;99.90
57088;DHT22;42965;52.846;6.614;2023-04-25T11:37:02;11.70;99.90
57088;DHT22;42965;52.846;6.614;2023-04-25T11:39:28;12.00;99.90
57088;DHT22;42965;52.846;6.614;2023-04-25T11:41:55;12.70;99.90
57088;DHT22;42965;52.846;6.614;2023-04-25T11:44:22;13.00;99.90
57088;DHT22;42965;52.846;6.614;2023-04-25T11:46:48;13.00;90.90
57088;DHT22;42965;52.846;6.614;2023-04-25T11:49:15;13.20;99.90
57088;DHT22;42965;52.846;6.614;2023-04-25T11:51:46;13.00;99.60
57088;DHT22;42965;52.846;6.614;2023-04-25T11:54:12;12.60;99.90
57088;DHT22;42965;52.846;6.614;2023-04-25T11:56:43;12.00;99.90
57088;DHT22;42965;52.846;6.614;2023-04-25T11:59:09;11.60;99.90
57088;DHT22;42965;52.846;6.614;2023-04-25T12:01:37;11.50;99.90
57088;DHT22;42965;52.846;6.614;2023-04-25T12:04:24;11.70;99.90
57088;DHT22;42965;52.846;6.614;2023-04-25T12:06:52;12.80;99.90
57088;DHT22;42965;52.846;6.614;2023-04-25T12:09:21;13.00;99.90
57088;DHT22;42965;52.846;6.614;2023-04-25T12:11:56;14.00;91.50
57088;DHT22;42965;52.846;6.614;2023-04-25T12:14:26;14.20;84.40
57088;DHT22;42965;52.846;6.614;2023-04-25T12:16:55;13.70;88.10
57088;DHT22;42965;52.846;6.614;2023-04-25T12:19:23;13.00;78.60
57088;DHT22;42965;52.846;6.614;2023-04-25T12:21:50;12.30;95.20
57088;DHT22;42965;52.846;6.614;2023-04-25T12:24:21;12.00;96.30
57088;DHT22;42965;52.846;6.614;2023-04-25T12:27:06;12.50;98.10
57088;DHT22;42965;52.846;6.614;2023-04-25T12:29:34;12.40;95.20
57088;DHT22;42965;52.846;6.614;2023-04-25T12:32:00;11.80;99.90
57088;DHT22;42965;52.846;6.614;2023-04-25T12:34:32;11.30;99.90
57088;DHT22;42965;52.846;6.614;2023-04-25T12:36:58;11.10;99.90
57088;DHT22;42965;52.846;6.614;2023-04-25T12:39:24;11.40;99.90
57088;DHT22;42965;52.846;6.614;2023-04-25T12:41:51;12.60;99.90
57088;DHT22;42965;52.846;6.614;2023-04-25T12:44:21;13.20;99.90
57088;DHT22;42965;52.846;6.614;2023-04-25T12:46:48;13.30;99.90
57088;DHT22;42965;52.846;6.614;2023-04-25T12:49:15;12.60;99.90
57088;DHT22;42965;52.846;6.614;2023-04-25T12:51:42;11.60;99.90
57088;DHT22;42965;52.846;6.614;2023-04-25T12:54:08;11.00;99.90
57088;DHT22;42965;52.846;6.614;2023-04-25T12:56:35;10.30;99.90
57088;DHT22;42965;52.846;6.614;2023-04-25T12:59:02;10.20;99.90
57088;DHT22;42965;52.846;6.614;2023-04-25T13:01:29;10.10;99.90
57088;DHT22;42965;52.846;6.614;2023-04-25T13:03:55;10.30;99.90
57088;DHT22;42965;52.846;6.614;2023-04-25T13:06:22;10.60;99.90
57088;DHT22;42965;52.846;6.614;2023-04-25T13:08:48;11.60;99.90
57088;DHT22;42965;52.846;6.614;2023-04-25T13:11:14;13.00;99.90
57088;DHT22;42965;52.846;6.614;2023-04-25T13:13:41;13.50;99.90
57088;DHT22;42965;52.846;6.614;2023-04-25T13:16:08;11.90;92.70
57088;DHT22;42965;52.846;6.614;2023-04-25T13:18:35;11.60;99.90
57088;DHT22;42965;52.846;6.614;2023-04-25T13:21:01;11.20;99.90
57088;DHT22;42965;52.846;6.614;2023-04-25T13:23:28;11.20;99.90
57088;DHT22;42965;52.846;6.614;2023-04-25T13:25:55;11.10;99.90
57088;DHT22;42965;52.846;6.614;2023-04-25T13:28:24;11.50;99.90
57088;DHT22;42965;52.846;6.614;2023-04-25T13:30:51;11.00;99.90
57088;DHT22;42965;52.846;6.614;2023-04-25T13:33:18;10.80;99.90
57088;DHT22;42965;52.846;6.614;2023-04-25T13:35:44;11.30;99.90
57088;DHT22;42965;52.846;6.614;2023-04-25T13:38:23;11.60;99.30
57088;DHT22;42965;52.846;6.614;2023-04-25T13:40:50;11.80;99.90
57088;DHT22;42965;52.846;6.614;2023-04-25T13:43:21;12.50;99.90
57088;DHT22;42965;52.846;6.614;2023-04-25T13:45:50;11.90;99.90
57088;DHT22;42965;52.846;6.614;2023-04-25T13:48:18;11.20;99.90
57088;DHT22;42965;52.846;6.614;2023-04-25T13:50:46;11.30;99.90
57088;DHT22;42965;52.846;6.614;2023-04-25T13:53:12;11.20;99.90
57088;DHT22;42965;52.846;6.614;2023-04-25T13:55:39;11.40;99.90
57088;DHT22;42965;52.846;6.614;2023-04-25T13:58:05;11.50;95.10
57088;DHT22;42965;52.846;6.614;2023-04-25T14:00:37;12.30;93.20
57088;DHT22;42965;52.846;6.614;2023-04-25T14:03:04;13.10;89.10
57088;DHT22;42965;52.846;6.614;2023-04-25T14:05:34;13.50;86.60
57088;DHT22;42965;52.846;6.614;2023-04-25T14:08:08;15.00;83.90
57088;DHT22;42965;52.846;6.614;2023-04-25T14:10:35;15.10;65.80
57088;DHT22;42965;52.846;6.614;2023-04-25T14:13:02;14.90;66.40
57088;DHT22;42965;52.846;6.614;2023-04-25T14:15:32;14.50;63.10
57088;DHT22;42965;52.846;6.614;2023-04-25T14:17:59;14.10;59.40
57088;DHT22;42965;52.846;6.614;2023-04-25T14:20:28;14.00;60.50
57088;DHT22;42965;52.846;6.614;2023-04-25T14:22:55;13.70;61.60
57088;DHT22;42965;52.846;6.614;2023-04-25T14:25:23;13.60;58.60
57088;DHT22;42965;52.846;6.614;2023-04-25T14:27:49;13.90;58.70
57088;DHT22;42965;52.846;6.614;2023-04-25T14:30:19;14.70;60.30
57088;DHT22;42965;52.846;6.614;2023-04-25T14:32:49;14.20;60.60
57088;DHT22;42965;52.846;6.614;2023-04-25T14:35:16;14.50;63.50
57088;DHT22;42965;52.846;6.614;2023-04-25T14:37:42;15.00;63.20
57088;DHT22;42965;52.846;6.614;2023-04-25T14:40:09;14.00;60.00
57088;DHT22;42965;52.846;6.614;2023-04-25T14:42:36;13.20;63.10
57088;DHT22;42965;52.846;6.614;2023-04-25T14:45:05;12.70;64.90
57088;DHT22;42965;52.846;6.614;2023-04-25T14:47:32;12.10;67.70
57088;DHT22;42965;52.846;6.614;2023-04-25T14:49:59;11.70;81.70
57088;DHT22;42965;52.846;6.614;2023-04-25T14:52:26;11.30;97.90
57088;DHT22;42965;52.846;6.614;2023-04-25T14:54:52;11.10;99.90
57088;DHT22;42965;52.846;6.614;2023-04-25T14:57:18;11.00;99.90
57088;DHT22;42965;52.846;6.614;2023-04-25T14:59:45;11.20;99.90
57088;DHT22;42965;52.846;6.614;2023-04-25T15:02:12;11.80;91.30
57088;DHT22;42965;52.846;6.614;2023-04-25T15:04:38;11.50;71.20
57088;DHT22;42965;52.846;6.614;2023-04-25T15:07:04;11.00;82.40
57088;DHT22;42965;52.846;6.614;2023-04-25T15:09:31;10.80;93.50
57088;DHT22;42965;52.846;6.614;2023-04-25T15:11:57;10.70;99.90
57088;DHT22;42965;52.846;6.614;2023-04-25T15:14:24;10.90;99.90
57088;DHT22;42965;52.846;6.614;2023-04-25T15:16:50;11.20;99.90
57088;DHT22;42965;52.846;6.614;2023-04-25T15:19:17;11.10;99.90
57088;DHT22;42965;52.846;6.614;2023-04-25T15:21:43;10.90;98.60
57088;DHT22;42965;52.846;6.614;2023-04-25T15:24:10;10.80;99.00
57088;DHT22;42965;52.846;6.614;2023-04-25T15:26:36;10.90;99.50
57088;DHT22;42965;52.846;6.614;2023-04-25T15:29:03;11.20;97.70
57088;DHT22;42965;52.846;6.614;2023-04-25T15:31:29;11.00;88.80
57088;DHT22;42965;52.846;6.614;2023-04-25T15:33:56;11.00;70.20
57088;DHT22;42965;52.846;6.614;2023-04-25T15:36:22;11.20;69.90
57088;DHT22;42965;52.846;6.614;2023-04-25T15:38:48;11.10;66.30
57088;DHT22;42965;52.846;6.614;2023-04-25T15:41:14;10.50;63.80
57088;DHT22;42965;52.846;6.614;2023-04-25T15:43:40;10.50;63.90
57088;DHT22;42965;52.846;6.614;2023-04-25T15:46:06;10.30;69.30
57088;DHT22;42965;52.846;6.614;2023-04-25T15:48:33;10.20;74.70
57088;DHT22;42965;52.846;6.614;2023-04-25T15:50:59;10.10;88.10
57088;DHT22;42965;52.846;6.614;2023-04-25T15:53:26;10.10;92.20
57088;DHT22;42965;52.846;6.614;2023-04-25T15:55:52;10.10;99.90
57088;DHT22;42965;52.846;6.614;2023-04-25T15:58:19;10.10;99.90
57088;DHT22;42965;52.846;6.614;2023-04-25T16:00:45;9.80;99.90